createdAt,value
2017-12-10T00:00:11.591Z,71.90
2017-12-10T00:02:41.178Z,71.50
2017-12-10T00:05:10.066Z,71.50
2017-12-10T00:07:38.601Z,71.80
2017-12-10T00:10:07.445Z,70.80
2017-12-10T00:12:36.313Z,70.50
2017-12-10T00:15:04.824Z,70.40
2017-12-10T00:17:34.441Z,70.20
2017-12-10T00:20:04.364Z,70.00
2017-12-10T00:22:33.978Z,69.70
2017-12-10T00:25:02.509Z,69.70
2017-12-10T00:27:31.070Z,69.30
2017-12-10T00:29:59.629Z,69.10
2017-12-10T00:32:28.493Z,68.80
2017-12-10T00:34:57.281Z,69.00
2017-12-10T00:37:25.513Z,69.20
2017-12-10T00:39:56.166Z,68.60
2017-12-10T00:42:27.924Z,68.90
2017-12-10T00:44:56.484Z,68.90
2017-12-10T00:47:25.010Z,69.00
2017-12-10T00:49:53.224Z,68.70
2017-12-10T00:52:21.434Z,68.30
2017-12-10T00:54:49.658Z,68.70
2017-12-10T00:57:17.889Z,68.00
2017-12-10T00:59:46.113Z,67.70
2017-12-10T01:02:15.375Z,67.50
2017-12-10T01:04:44.781Z,67.60
2017-12-10T01:07:14.009Z,67.60
2017-12-10T01:09:42.202Z,67.40
2017-12-10T01:12:10.741Z,67.40
2017-12-10T01:14:38.959Z,67.50
2017-12-10T01:17:08.257Z,67.00
2017-12-10T01:19:37.241Z,66.90
2017-12-10T01:22:07.211Z,67.10
2017-12-10T01:24:36.818Z,67.10
2017-12-10T01:27:05.997Z,66.60
2017-12-10T01:29:34.524Z,66.70
2017-12-10T01:32:02.726Z,65.90
2017-12-10T01:34:31.746Z,65.80
2017-12-10T01:37:00.572Z,65.80
2017-12-10T01:39:28.802Z,65.70
2017-12-10T01:41:57.237Z,65.90
2017-12-10T01:44:25.445Z,65.70
2017-12-10T01:46:54.418Z,65.00
2017-12-10T01:49:22.622Z,65.00
2017-12-10T01:51:51.593Z,64.10
2017-12-10T01:54:19.794Z,64.20
2017-12-10T01:56:48.002Z,63.70
2017-12-10T01:59:16.113Z,63.40
2017-12-10T02:01:44.334Z,63.20
2017-12-10T02:04:13.330Z,63.90
2017-12-10T02:06:41.533Z,63.40
2017-12-10T02:09:09.729Z,63.30
2017-12-10T02:11:37.957Z,63.40
2017-12-10T02:14:06.180Z,63.40
2017-12-10T02:16:34.389Z,63.30
2017-12-10T02:19:03.373Z,62.90
2017-12-10T02:21:32.353Z,62.90
2017-12-10T02:24:00.575Z,62.90
2017-12-10T02:26:28.814Z,62.90
2017-12-10T02:28:57.798Z,62.50
2017-12-10T02:31:26.008Z,62.50
2017-12-10T02:33:54.213Z,62.40
2017-12-10T02:36:22.416Z,62.40
2017-12-10T02:38:50.634Z,62.40
2017-12-10T02:41:19.149Z,62.40
2017-12-10T02:43:47.353Z,62.50
2017-12-10T02:46:15.602Z,62.50
2017-12-10T02:48:43.824Z,62.20
2017-12-10T02:51:12.869Z,61.80
2017-12-10T02:53:41.604Z,61.80
2017-12-10T02:56:10.669Z,61.90
2017-12-10T02:58:39.710Z,61.90
2017-12-10T03:01:07.921Z,62.10
2017-12-10T03:03:36.146Z,61.90
2017-12-10T03:06:05.129Z,62.10
2017-12-10T03:08:34.099Z,62.10
2017-12-10T03:11:03.288Z,62.00
2017-12-10T03:13:31.512Z,61.80
2017-12-10T03:16:00.486Z,61.30
2017-12-10T03:18:28.693Z,61.20
2017-12-10T03:20:57.677Z,61.40
2017-12-10T03:23:26.673Z,61.80
2017-12-10T03:25:55.637Z,61.90
2017-12-10T03:28:23.857Z,61.90
2017-12-10T03:30:53.050Z,61.90
2017-12-10T03:33:22.021Z,61.70
2017-12-10T03:35:50.993Z,61.70
2017-12-10T03:38:19.204Z,61.70
2017-12-10T03:40:48.177Z,61.70
2017-12-10T03:43:16.384Z,61.80
2017-12-10T03:45:45.362Z,62.00
2017-12-10T03:48:14.358Z,61.90
2017-12-10T03:50:43.819Z,61.60
2017-12-10T03:53:12.047Z,61.60
2017-12-10T03:55:41.341Z,61.60
2017-12-10T03:58:10.659Z,61.70
2017-12-10T04:00:39.642Z,61.60
2017-12-10T04:03:08.641Z,62.00
2017-12-10T04:05:37.621Z,62.00
2017-12-10T04:08:06.910Z,61.90
2017-12-10T04:10:36.398Z,61.90
2017-12-10T04:13:04.659Z,61.50
2017-12-10T04:15:33.273Z,61.60
2017-12-10T04:18:01.537Z,61.70
2017-12-10T04:20:30.415Z,61.60
2017-12-10T04:22:58.970Z,61.80
2017-12-10T04:25:27.169Z,61.80
2017-12-10T04:27:55.398Z,61.90
2017-12-10T04:30:24.384Z,61.80
2017-12-10T04:32:53.996Z,61.90
2017-12-10T04:35:22.972Z,61.90
2017-12-10T04:37:51.223Z,61.90
2017-12-10T04:40:19.795Z,62.10
2017-12-10T04:42:48.345Z,61.80
2017-12-10T04:45:17.329Z,62.20
2017-12-10T04:47:45.560Z,62.10
2017-12-10T04:50:13.775Z,62.20
2017-12-10T04:52:42.757Z,61.80
2017-12-10T04:55:11.602Z,61.80
2017-12-10T04:57:40.130Z,61.80
2017-12-10T05:00:10.201Z,61.90
2017-12-10T05:02:38.734Z,62.00
2017-12-10T05:05:07.613Z,62.00
2017-12-10T05:07:36.140Z,62.20
2017-12-10T05:10:04.693Z,62.20
2017-12-10T05:12:33.523Z,62.10
2017-12-10T05:15:02.085Z,62.20
2017-12-10T05:17:31.377Z,62.50
2017-12-10T05:19:59.585Z,62.40
2017-12-10T05:22:27.796Z,62.40
2017-12-10T05:24:56.337Z,62.30
2017-12-10T05:27:25.224Z,62.40
2017-12-10T05:29:54.205Z,62.30
2017-12-10T05:32:23.185Z,62.40
2017-12-10T05:34:51.717Z,62.30
2017-12-10T05:37:21.207Z,62.40
2017-12-10T05:39:49.483Z,62.40
2017-12-10T05:42:18.637Z,62.60
2017-12-10T05:44:47.187Z,62.50
2017-12-10T05:47:32.532Z,62.60
2017-12-10T05:50:00.756Z,62.80
2017-12-10T05:52:29.301Z,62.90
2017-12-10T05:54:57.535Z,63.20
2017-12-10T05:57:26.383Z,63.20
2017-12-10T05:59:55.418Z,63.30
2017-12-10T06:02:23.640Z,63.50
2017-12-10T06:04:51.873Z,63.60
2017-12-10T06:07:20.409Z,63.60
2017-12-10T06:09:48.634Z,63.40
2017-12-10T06:12:17.178Z,63.80
2017-12-10T06:14:45.714Z,63.90
2017-12-10T06:17:14.929Z,64.00
2017-12-10T06:19:44.333Z,64.10
2017-12-10T06:22:13.305Z,64.10
2017-12-10T06:24:41.523Z,64.10
2017-12-10T06:27:10.056Z,63.90
2017-12-10T06:29:38.607Z,64.00
2017-12-10T06:32:08.350Z,64.10
2017-12-10T06:34:37.221Z,64.30
2017-12-10T06:37:06.686Z,64.30
2017-12-10T06:39:34.914Z,64.30
2017-12-10T06:42:03.453Z,64.40
2017-12-10T06:44:31.681Z,64.30
2017-12-10T06:47:00.313Z,64.60
2017-12-10T06:49:28.517Z,64.80
2017-12-10T06:51:57.990Z,64.70
2017-12-10T06:54:26.216Z,64.60
2017-12-10T06:56:54.443Z,64.40
2017-12-10T06:59:23.376Z,64.40
2017-12-10T07:01:51.586Z,64.30
2017-12-10T07:04:20.891Z,63.80
2017-12-10T07:06:50.205Z,64.60
2017-12-10T07:09:20.186Z,64.40
2017-12-10T07:11:48.408Z,64.30
2017-12-10T07:14:16.615Z,64.30
2017-12-10T07:16:45.477Z,64.00
2017-12-10T07:19:13.682Z,64.40
2017-12-10T07:21:43.077Z,64.30
2017-12-10T07:24:11.285Z,64.00
2017-12-10T07:26:39.501Z,64.20
2017-12-10T07:29:08.476Z,64.00
2017-12-10T07:31:37.016Z,63.90
2017-12-10T07:34:05.300Z,63.80
2017-12-10T07:36:33.860Z,63.50
2017-12-10T07:39:02.084Z,62.80
2017-12-10T07:41:30.955Z,62.90
2017-12-10T07:43:59.502Z,62.90
2017-12-10T07:46:27.720Z,62.80
2017-12-10T07:48:56.253Z,62.60
2017-12-10T07:51:25.221Z,62.80
2017-12-10T07:53:54.091Z,62.80
2017-12-10T07:56:22.335Z,62.40
2017-12-10T07:58:50.862Z,62.00
2017-12-10T08:01:20.007Z,62.30
2017-12-10T08:03:48.216Z,61.70
2017-12-10T08:06:16.417Z,61.40
2017-12-10T08:08:44.613Z,60.70
2017-12-10T08:11:13.581Z,59.70
2017-12-10T08:13:42.552Z,59.60
2017-12-10T08:16:11.399Z,59.40
2017-12-10T08:18:39.942Z,58.70
2017-12-10T08:21:08.150Z,58.80
2017-12-10T08:23:37.773Z,59.10
2017-12-10T08:26:06.800Z,59.40
2017-12-10T08:28:35.010Z,59.40
2017-12-10T08:31:03.230Z,59.60
2017-12-10T08:33:31.773Z,59.90
2017-12-10T08:36:00.320Z,60.10
2017-12-10T08:38:28.893Z,61.10
2017-12-10T08:40:58.493Z,60.50
2017-12-10T08:43:26.695Z,60.40
2017-12-10T08:45:56.618Z,60.50
2017-12-10T08:48:27.132Z,60.30
2017-12-10T08:50:58.571Z,60.20
2017-12-10T08:53:26.829Z,60.20
2017-12-10T08:55:57.341Z,60.10
2017-12-10T08:58:26.510Z,59.60
2017-12-10T09:00:56.987Z,59.60
2017-12-10T09:03:25.519Z,59.60
2017-12-10T09:05:56.869Z,59.30
2017-12-10T09:08:25.085Z,59.10
2017-12-10T09:10:53.963Z,58.50
2017-12-10T09:13:22.533Z,58.10
2017-12-10T09:15:50.749Z,57.70
2017-12-10T09:18:18.962Z,58.10
2017-12-10T09:20:47.525Z,57.50
2017-12-10T09:23:16.065Z,57.40
2017-12-10T09:25:45.849Z,56.30
2017-12-10T09:28:14.382Z,56.30
2017-12-10T09:30:42.590Z,55.90
2017-12-10T09:33:10.821Z,55.10
2017-12-10T09:35:39.807Z,54.70
2017-12-10T09:38:08.021Z,54.70
2017-12-10T09:40:36.223Z,55.20
2017-12-10T09:43:04.772Z,55.20
2017-12-10T09:45:33.293Z,55.00
2017-12-10T09:48:01.673Z,54.40
2017-12-10T09:50:30.205Z,54.80
2017-12-10T09:52:59.172Z,55.20
2017-12-10T09:55:27.479Z,55.20
2017-12-10T09:57:56.021Z,55.00
2017-12-10T10:00:24.260Z,55.00
2017-12-10T10:02:53.983Z,55.00
2017-12-10T10:05:22.528Z,54.90
2017-12-10T10:07:50.573Z,54.90
2017-12-10T10:12:53.728Z,54.90
2017-12-10T10:15:22.761Z,55.00
2017-12-10T10:18:04.822Z,54.90
2017-12-10T10:20:34.193Z,54.30
2017-12-10T10:23:03.166Z,54.00
2017-12-10T10:25:31.414Z,54.00
2017-12-10T10:28:00.258Z,54.20
2017-12-10T10:30:29.558Z,53.90
2017-12-10T10:32:58.642Z,53.80
2017-12-10T10:35:27.537Z,53.70
2017-12-10T10:40:57.104Z,53.90
2017-12-10T10:43:25.340Z,53.70
2017-12-10T10:45:53.562Z,53.80
2017-12-10T10:48:22.572Z,53.90
2017-12-10T10:50:50.778Z,54.00
2017-12-10T10:53:18.986Z,54.10
2017-12-10T10:55:48.276Z,54.00
2017-12-10T10:58:16.478Z,54.00
2017-12-10T11:00:45.299Z,53.70
2017-12-10T11:03:13.867Z,53.90
2017-12-10T11:05:42.406Z,53.60
2017-12-10T11:08:11.377Z,53.90
2017-12-10T11:10:41.484Z,53.90
2017-12-10T11:13:10.026Z,53.50
2017-12-10T11:15:38.581Z,53.40
2017-12-10T11:18:06.782Z,53.20
2017-12-10T11:20:35.314Z,53.20
2017-12-10T11:23:03.528Z,53.60
2017-12-10T11:25:32.533Z,53.80
2017-12-10T11:28:01.574Z,54.00
2017-12-10T11:30:30.120Z,53.90
2017-12-10T11:32:58.658Z,54.00
2017-12-10T11:35:27.193Z,54.10
2017-12-10T11:37:56.637Z,54.50
2017-12-10T11:40:24.859Z,54.40
2017-12-10T11:42:53.105Z,54.60
2017-12-10T11:45:21.675Z,54.80
2017-12-10T11:47:50.249Z,54.80
2017-12-10T11:50:19.526Z,54.80
2017-12-10T11:52:47.785Z,54.70
2017-12-10T11:55:15.993Z,54.90
2017-12-10T11:57:44.541Z,54.90
2017-12-10T12:00:13.806Z,54.90
2017-12-10T12:02:42.012Z,54.90
2017-12-10T12:05:12.766Z,54.80
2017-12-10T12:07:40.973Z,54.80
2017-12-10T12:10:09.877Z,54.70
2017-12-10T12:12:38.200Z,54.90
2017-12-10T12:15:06.713Z,54.90
2017-12-10T12:17:35.288Z,54.90
2017-12-10T12:20:03.567Z,55.20
2017-12-10T12:22:38.302Z,55.20
2017-12-10T12:25:06.959Z,55.40
2017-12-10T12:27:35.480Z,55.40
2017-12-10T12:30:05.492Z,55.70
2017-12-10T12:32:34.027Z,55.60
2017-12-10T12:35:03.447Z,55.70
2017-12-10T12:37:31.995Z,55.70
2017-12-10T12:40:00.832Z,55.80
2017-12-10T12:42:29.032Z,55.90
2017-12-10T12:44:57.867Z,56.00
2017-12-10T12:47:26.386Z,55.80
2017-12-10T12:49:54.589Z,55.90
2017-12-10T12:52:24.508Z,55.70
2017-12-10T12:54:53.235Z,55.80
2017-12-10T12:57:23.169Z,55.60
2017-12-10T12:59:51.953Z,55.50
2017-12-10T13:02:20.239Z,55.80
2017-12-10T13:04:55.652Z,55.70
2017-12-10T13:07:24.221Z,55.60
2017-12-10T13:10:06.377Z,56.30
2017-12-10T13:12:35.980Z,55.90
2017-12-10T13:15:09.906Z,55.90
2017-12-10T13:17:38.464Z,55.90
2017-12-10T13:20:07.198Z,56.10
2017-12-10T13:22:35.418Z,56.20
2017-12-10T13:25:03.664Z,56.30
2017-12-10T13:30:48.901Z,56.40
2017-12-10T13:33:17.437Z,56.40
2017-12-10T13:35:45.977Z,56.40
2017-12-10T13:38:19.734Z,56.40
2017-12-10T13:43:24.249Z,56.30
2017-12-10T13:45:53.150Z,56.60
2017-12-10T13:48:21.586Z,56.60
2017-12-10T13:51:11.063Z,56.50
2017-12-10T13:53:40.409Z,56.50
2017-12-10T13:56:08.932Z,56.30
2017-12-10T13:58:38.949Z,56.30
2017-12-10T14:01:07.431Z,56.20
2017-12-10T14:03:36.403Z,56.50
2017-12-10T14:06:05.574Z,56.20
2017-12-10T14:08:34.566Z,56.30
2017-12-10T14:11:02.788Z,56.20
2017-12-10T14:13:31.665Z,56.20
2017-12-10T14:15:59.863Z,56.10
2017-12-10T14:18:29.179Z,55.60
2017-12-10T14:20:58.153Z,56.00
2017-12-10T14:23:26.369Z,55.40
2017-12-10T14:25:55.219Z,55.50
2017-12-10T14:28:24.265Z,55.50
2017-12-10T14:30:53.828Z,55.40
2017-12-10T14:33:22.838Z,55.30
2017-12-10T14:35:51.394Z,55.20
2017-12-10T14:38:19.992Z,55.30
2017-12-10T14:40:48.952Z,55.10
2017-12-10T14:43:17.841Z,55.00
2017-12-10T14:45:47.081Z,54.70
2017-12-10T14:48:16.381Z,54.40
2017-12-10T14:50:46.043Z,54.40
2017-12-10T14:53:14.267Z,54.30
2017-12-10T14:55:44.361Z,54.10
2017-12-10T14:58:13.130Z,54.00
2017-12-10T15:00:41.333Z,54.20
2017-12-10T15:03:09.881Z,54.40
2017-12-10T15:05:40.140Z,54.50
2017-12-10T15:08:08.733Z,55.50
2017-12-10T15:10:37.719Z,55.40
2017-12-10T15:13:06.257Z,55.40
2017-12-10T15:15:34.841Z,55.90
2017-12-10T15:18:03.714Z,55.50
2017-12-10T15:20:31.921Z,55.50
2017-12-10T15:23:00.145Z,56.80
2017-12-10T15:25:29.502Z,59.20
2017-12-10T15:27:57.884Z,59.20
2017-12-10T15:30:26.084Z,59.30
2017-12-10T15:32:54.361Z,59.90
2017-12-10T15:35:23.221Z,59.80
2017-12-10T15:37:51.763Z,60.10
2017-12-10T15:40:20.733Z,60.50
2017-12-10T15:42:49.270Z,60.30
2017-12-10T15:45:17.813Z,60.90
2017-12-10T15:47:47.233Z,63.70
2017-12-10T15:50:16.225Z,66.00
2017-12-10T15:52:45.546Z,68.30
2017-12-10T15:55:14.084Z,68.20
2017-12-10T15:57:42.468Z,69.60
2017-12-10T16:00:10.688Z,70.70
2017-12-10T16:02:38.939Z,70.80
2017-12-10T16:05:08.624Z,73.80
2017-12-10T16:07:36.877Z,73.80
2017-12-10T16:10:05.717Z,74.60
2017-12-10T16:12:35.884Z,76.10
2017-12-10T16:15:05.567Z,76.10
2017-12-10T16:17:34.102Z,76.80
2017-12-10T16:20:03.606Z,78.50
2017-12-10T16:22:31.833Z,79.00
2017-12-10T16:25:00.689Z,80.60
2017-12-10T16:27:29.277Z,81.50
2017-12-10T16:29:57.485Z,81.90
2017-12-10T16:32:25.700Z,83.30
2017-12-10T16:34:54.228Z,83.10
2017-12-10T16:37:23.109Z,83.40
2017-12-10T16:39:53.291Z,84.50
2017-12-10T16:42:21.499Z,85.10
2017-12-10T16:44:50.825Z,86.50
2017-12-10T16:47:19.374Z,86.90
2017-12-10T16:49:47.909Z,84.10
2017-12-10T16:52:16.453Z,84.70
2017-12-10T16:54:45.745Z,84.40
2017-12-10T16:57:14.877Z,84.60
2017-12-10T16:59:43.130Z,83.60
2017-12-10T17:02:12.144Z,83.40
2017-12-10T17:04:41.326Z,84.30
2017-12-10T17:07:10.313Z,82.90
2017-12-10T17:09:38.512Z,83.00
2017-12-10T17:12:07.485Z,81.20
2017-12-10T17:14:36.470Z,82.70
2017-12-10T17:17:04.677Z,83.20
2017-12-10T17:19:33.184Z,80.70
2017-12-10T17:22:01.402Z,79.00
2017-12-10T17:24:29.629Z,78.50
2017-12-10T17:26:58.165Z,77.90
2017-12-10T17:29:26.386Z,77.70
2017-12-10T17:31:54.940Z,78.20
2017-12-10T17:34:24.560Z,77.30
2017-12-10T17:36:53.088Z,77.20
2017-12-10T17:39:21.624Z,77.30
2017-12-10T17:41:49.853Z,77.10
2017-12-10T17:44:18.436Z,76.80
2017-12-10T17:46:47.230Z,76.90
2017-12-10T17:49:15.451Z,77.20
2017-12-10T17:51:43.661Z,76.70
2017-12-10T17:54:12.238Z,76.70
2017-12-10T17:56:40.455Z,76.10
2017-12-10T17:59:09.323Z,75.70
2017-12-10T18:01:37.554Z,75.30
2017-12-10T18:04:08.527Z,75.30
2017-12-10T18:06:36.913Z,75.10
2017-12-10T18:09:05.440Z,74.90
2017-12-10T18:11:34.552Z,75.30
2017-12-10T18:14:03.241Z,75.20
2017-12-10T18:16:31.772Z,74.80
2017-12-10T18:18:59.984Z,74.70
2017-12-10T18:21:28.846Z,74.80
2017-12-10T18:23:57.063Z,74.80
2017-12-10T18:26:25.876Z,74.60
2017-12-10T18:28:54.390Z,74.60
2017-12-10T18:31:24.537Z,74.50
2017-12-10T18:33:52.749Z,74.50
2017-12-10T18:36:21.848Z,74.30
2017-12-10T18:38:51.533Z,74.30
2017-12-10T18:41:20.501Z,74.10
2017-12-10T18:43:48.698Z,74.10
2017-12-10T18:46:17.702Z,75.10
2017-12-10T18:48:46.982Z,74.80
2017-12-10T20:10:13.201Z,74.90
2017-12-10T20:12:41.742Z,75.50
2017-12-10T20:15:10.302Z,75.00
2017-12-10T20:17:38.863Z,75.40
2017-12-10T20:20:07.067Z,75.50
2017-12-10T20:22:35.260Z,76.70
2017-12-10T20:25:03.482Z,77.00
2017-12-10T20:27:32.092Z,77.90
2017-12-10T20:30:01.146Z,76.30
2017-12-10T20:32:29.361Z,76.20
2017-12-10T20:34:57.910Z,76.40
2017-12-10T20:37:27.238Z,76.70
2017-12-10T20:39:55.661Z,76.70
2017-12-10T20:42:23.955Z,76.50
2017-12-10T20:44:52.933Z,76.00
2017-12-10T20:47:21.477Z,76.00
2017-12-10T20:49:50.022Z,76.10
2017-12-10T20:52:19.001Z,75.40
2017-12-10T20:54:47.217Z,75.40
2017-12-10T20:57:16.651Z,75.10
2017-12-10T20:59:45.189Z,75.40
2017-12-10T21:02:14.168Z,75.70
2017-12-10T21:04:42.374Z,75.80
2017-12-10T21:07:10.596Z,75.80
2017-12-10T21:09:39.480Z,76.10
2017-12-10T21:12:07.686Z,76.40
2017-12-10T21:14:36.702Z,76.70
2017-12-10T21:17:04.905Z,76.70
2017-12-10T21:19:34.475Z,76.60
2017-12-10T21:24:55.457Z,88.40
2017-12-10T21:27:27.632Z,85.30
2017-12-10T21:30:08.602Z,90.60
2017-12-10T21:32:37.180Z,90.60
2017-12-10T21:35:06.816Z,80.80
2017-12-10T21:37:36.469Z,79.50
2017-12-10T21:40:05.289Z,80.10
2017-12-10T21:42:34.174Z,79.90
2017-12-10T21:45:04.209Z,79.40
2017-12-10T21:47:33.097Z,78.80
2017-12-10T21:50:01.326Z,78.60
2017-12-10T21:52:29.853Z,78.40
2017-12-10T21:54:58.069Z,78.00
2017-12-10T21:57:27.382Z,77.50
2017-12-10T21:59:56.669Z,77.20
2017-12-10T22:02:26.278Z,77.40
2017-12-10T22:04:55.898Z,77.80
2017-12-10T22:07:25.521Z,78.20
2017-12-10T22:09:54.078Z,78.20
2017-12-10T22:12:23.702Z,78.50
2017-12-10T22:14:52.900Z,78.60
2017-12-10T22:17:22.206Z,78.30
2017-12-10T22:19:50.416Z,78.40
2017-12-10T22:22:18.629Z,78.20
2017-12-10T22:24:46.832Z,78.20
2017-12-10T22:27:15.350Z,77.70
2017-12-10T22:29:44.129Z,77.90
2017-12-10T22:32:13.780Z,77.90
2017-12-10T22:34:42.317Z,77.80
2017-12-10T22:37:10.527Z,78.10
2017-12-10T22:39:39.393Z,78.20
2017-12-10T22:42:07.937Z,78.50
2017-12-10T22:44:37.537Z,79.00
2017-12-10T22:47:07.974Z,79.10
2017-12-10T22:49:37.565Z,79.10
2017-12-10T22:52:06.392Z,79.10
2017-12-10T22:54:35.213Z,79.20
2017-12-10T22:57:04.093Z,79.20
2017-12-10T22:59:33.689Z,79.50
2017-12-10T23:02:02.574Z,79.60
2017-12-10T23:04:31.425Z,79.70
2017-12-10T23:07:00.329Z,79.80
2017-12-10T23:09:29.926Z,79.80
2017-12-10T23:11:58.756Z,79.80
2017-12-10T23:14:39.855Z,80.20
2017-12-10T23:17:08.678Z,79.60
2017-12-10T23:19:38.837Z,79.10
2017-12-10T23:22:07.669Z,78.90
2017-12-10T23:24:36.510Z,79.10
2017-12-10T23:27:06.119Z,80.40
2017-12-10T23:29:35.727Z,81.00
2017-12-10T23:32:04.253Z,81.00
2017-12-10T23:34:32.786Z,81.70
2017-12-10T23:37:02.119Z,82.10
2017-12-10T23:39:30.674Z,82.00
2017-12-10T23:42:00.285Z,82.40
2017-12-10T23:44:29.565Z,82.70
2017-12-10T23:46:58.140Z,83.30
2017-12-10T23:49:26.965Z,82.70
2017-12-10T23:51:56.572Z,83.10
2017-12-10T23:54:26.185Z,83.30
2017-12-10T23:56:55.018Z,83.30
2017-12-10T23:59:23.868Z,83.10
